Portada
METAR-TAF:

METAR-TAF

Aeroports :

Huế, Vietnam

latitud: 16-24N, longitud: 107-41E, altitud: 17 m

Observació

L'informe es va fer fa 23 minuts, a les 11:00 UTC
Vent 5 kt del Est
Temperatura 23°C
Humitat 94%
Pressió 1016 hPa
Visibilitat: 8000 m
Escasses núvols a una alçada de 1500 ft
Cel ennuvolat a una alçada de 6000 ft

METAR: VVPB 151100Z 09005KT 8000 FEW015 BKN060 23/22 Q1016 NOSIG

Hora: 18:23 (11:23 UTC)

Pronòstic

L'informe es va fer fa 6 hores i 23 minuts, a les 05:00 UTC
Pronòstic vàlid del 15 a les 06 UTC al 16 a les 06 UTC
Vent 7 kt del Est/Sud-Est
Visibilitat: 8000 m
Núvols disperses a una alçada de 1500 ft
Cel ennuvolat a una alçada de 5000 ft
Evolucionant progressivament
l' 15 a les 20 UTC al 15 a les 21 UTC
Visibilitat: 3000 m
boirina
Evolucionant progressivament
l' 16 a les 00 UTC al 16 a les 01 UTC
Visibilitat: 6000 m

TAF: VVPB 150500Z 1506/1606 11007KT 8000 SCT015 BKN050 BECMG 1520/1521 3000 BR BECMG 1600/1601 6000 NSW

Observacions i pronòstics meteorològics de més de 4000 aeroports (METAR i TAF).

Les estacions disponibles són els punts grocs i vermells al mapa.

Posi el ratolí al punt desitjat per veure el nom de l'estació.

Feu clic per veure les observacions i els pronòstics meteorològics.

Per canviar el mapa: feu clic els botons verds amb una creu de color negre per apropar; al botó verd amb un guió per allunyar la imatge; o en les fletxes verdes per a mapes adjacents.


METAR-TAF: